createdAt,value
2019-01-31T00:00:50.478Z,0.12
2019-01-31T00:01:50.559Z,0.08
2019-01-31T00:02:50.479Z,0.04
2019-01-31T00:03:50.564Z,-0.02
2019-01-31T00:04:50.496Z,-0.06
2019-01-31T00:05:50.482Z,-0.13
2019-01-31T00:06:50.555Z,-0.20
2019-01-31T00:07:50.496Z,-0.25
2019-01-31T00:08:50.481Z,-0.31
2019-01-31T00:09:50.493Z,-0.35
2019-01-31T00:10:50.501Z,-0.40
2019-01-31T00:11:50.557Z,-0.43
2019-01-31T00:12:50.494Z,-0.49
2019-01-31T00:13:50.454Z,-0.54
2019-01-31T00:14:50.544Z,-0.61
2019-01-31T00:15:50.488Z,-0.67
2019-01-31T00:16:50.507Z,-0.77
2019-01-31T00:17:50.497Z,-0.85
2019-01-31T00:18:50.545Z,-0.92
2019-01-31T00:19:50.453Z,-0.99
2019-01-31T00:20:50.435Z,-1.08
2019-01-31T00:21:50.504Z,-1.17
2019-01-31T00:22:50.475Z,-1.22
2019-01-31T00:23:50.492Z,-1.30
2019-01-31T00:24:50.458Z,-1.38
2019-01-31T00:25:50.460Z,-1.43
2019-01-31T00:26:50.503Z,-1.49
2019-01-31T00:27:50.448Z,-1.55
2019-01-31T00:28:50.455Z,-1.59
2019-01-31T00:29:50.412Z,-1.62
2019-01-31T00:30:50.482Z,-1.60
2019-01-31T00:31:50.462Z,-1.67
2019-01-31T00:32:50.460Z,-1.66
2019-01-31T00:33:50.554Z,-1.63
2019-01-31T00:34:50.561Z,-1.63
2019-01-31T00:35:50.560Z,-1.60
2019-01-31T00:36:50.566Z,-1.62
2019-01-31T00:37:50.468Z,-1.60
2019-01-31T00:38:56.767Z,-1.62
2019-01-31T00:39:50.563Z,-1.62
2019-01-31T00:40:50.519Z,-1.65
2019-01-31T00:41:50.564Z,-1.66
2019-01-31T00:42:50.581Z,-1.70
2019-01-31T00:43:50.581Z,-1.76
2019-01-31T00:44:50.509Z,-1.80
2019-01-31T00:45:50.612Z,-1.80
2019-01-31T00:46:50.528Z,-1.85
2019-01-31T00:47:50.530Z,-1.89
2019-01-31T00:48:50.590Z,-1.97
2019-01-31T00:49:50.654Z,-2.02
2019-01-31T00:50:50.625Z,-2.04
2019-01-31T00:51:50.468Z,-2.05
2019-01-31T00:52:50.453Z,-2.05
2019-01-31T00:53:50.387Z,-2.04
2019-01-31T00:54:50.423Z,-2.00
2019-01-31T00:55:50.517Z,-1.93
2019-01-31T00:56:50.442Z,-1.88
2019-01-31T00:57:50.482Z,-1.77
2019-01-31T00:58:50.483Z,-1.63
2019-01-31T00:59:50.462Z,-1.52
2019-01-31T01:00:50.397Z,-1.45
2019-01-31T01:01:50.504Z,-1.37
2019-01-31T01:02:50.602Z,-1.29
2019-01-31T01:03:50.593Z,-1.21
2019-01-31T01:04:50.541Z,-1.13
2019-01-31T01:05:50.597Z,-1.07
2019-01-31T01:06:50.603Z,-1.02
2019-01-31T01:07:50.542Z,-1.00
2019-01-31T01:08:50.605Z,-0.95
2019-01-31T01:09:50.604Z,-0.91
2019-01-31T01:10:50.530Z,-0.88
2019-01-31T01:11:50.601Z,-0.85
2019-01-31T01:12:50.624Z,-0.85
2019-01-31T01:13:50.607Z,-0.84
2019-01-31T01:14:50.618Z,-0.81
2019-01-31T01:15:50.549Z,-0.81
2019-01-31T01:16:50.627Z,-0.78
2019-01-31T01:17:50.562Z,-0.77
2019-01-31T01:18:50.667Z,-0.75
2019-01-31T01:19:50.623Z,-0.75
2019-01-31T01:20:50.556Z,-0.73
2019-01-31T01:21:50.617Z,-0.73
2019-01-31T01:22:50.566Z,-0.72
2019-01-31T01:23:50.616Z,-0.69
2019-01-31T01:24:50.564Z,-0.65
2019-01-31T01:25:50.566Z,-0.59
2019-01-31T01:26:50.553Z,-0.54
2019-01-31T01:27:50.556Z,-0.49
2019-01-31T01:28:50.622Z,-0.44
2019-01-31T01:29:50.617Z,-0.43
2019-01-31T01:30:50.561Z,-0.42
2019-01-31T01:31:50.558Z,-0.44
2019-01-31T01:32:50.534Z,-0.49
2019-01-31T01:33:50.614Z,-0.54
2019-01-31T01:35:00.911Z,-0.61
2019-01-31T01:35:50.605Z,-0.66
2019-01-31T01:36:50.543Z,-0.70
2019-01-31T01:37:50.608Z,-0.75
2019-01-31T01:38:50.546Z,-0.80
2019-01-31T01:39:50.607Z,-0.81
2019-01-31T01:40:50.540Z,-0.78
2019-01-31T01:41:50.610Z,-0.78
2019-01-31T01:42:50.547Z,-0.75
2019-01-31T01:43:50.637Z,-0.70
2019-01-31T01:44:50.567Z,-0.62
2019-01-31T01:45:50.570Z,-0.58
2019-01-31T01:46:50.639Z,-0.58
2019-01-31T01:47:50.629Z,-0.55
2019-01-31T01:48:50.572Z,-0.56
2019-01-31T01:49:50.592Z,-0.49
2019-01-31T01:50:50.551Z,-0.49
2019-01-31T01:51:50.559Z,-0.49
2019-01-31T01:52:50.641Z,-0.46
2019-01-31T01:53:50.578Z,-0.44
2019-01-31T01:54:50.573Z,-0.44
2019-01-31T01:55:50.559Z,-0.46
2019-01-31T01:56:50.583Z,-0.40
2019-01-31T01:57:50.634Z,-0.36
2019-01-31T01:58:50.593Z,-0.35
2019-01-31T01:59:50.636Z,-0.33
2019-01-31T02:00:50.579Z,-0.33
2019-01-31T02:01:50.583Z,-0.35
2019-01-31T02:02:50.630Z,-0.33
2019-01-31T02:03:50.568Z,-0.32
2019-01-31T02:04:50.637Z,-0.29
2019-01-31T02:05:50.642Z,-0.25
2019-01-31T02:06:50.582Z,-0.22
2019-01-31T02:07:50.638Z,-0.22
2019-01-31T02:08:50.567Z,-0.24
2019-01-31T02:09:50.630Z,-0.25
2019-01-31T02:10:50.571Z,-0.29
2019-01-31T02:11:50.567Z,-0.32
2019-01-31T02:12:50.584Z,-0.32
2019-01-31T02:13:50.537Z,-0.33
2019-01-31T02:14:50.661Z,-0.36
2019-01-31T02:15:50.649Z,-0.38
2019-01-31T02:16:51.598Z,-0.38
2019-01-31T02:17:50.597Z,-0.40
2019-01-31T02:18:50.658Z,-0.42
2019-01-31T02:19:50.643Z,-0.42
2019-01-31T02:20:50.612Z,-0.42
2019-01-31T02:21:50.614Z,-0.40
2019-01-31T02:22:50.654Z,-0.39
2019-01-31T02:23:50.602Z,-0.38
2019-01-31T02:24:50.653Z,-0.38
2019-01-31T02:25:50.662Z,-0.35
2019-01-31T02:26:50.719Z,-0.32
2019-01-31T02:27:50.619Z,-0.33
2019-01-31T02:28:50.603Z,-0.32
2019-01-31T02:29:50.665Z,-0.32
2019-01-31T02:30:50.658Z,-0.31
2019-01-31T02:31:50.621Z,-0.29
2019-01-31T02:32:50.572Z,-0.28
2019-01-31T02:33:50.577Z,-0.27
2019-01-31T02:34:50.647Z,-0.24
2019-01-31T02:35:50.572Z,-0.22
2019-01-31T02:36:50.655Z,-0.21
2019-01-31T02:37:50.650Z,-0.20
2019-01-31T02:38:50.575Z,-0.17
2019-01-31T02:39:50.652Z,-0.15
2019-01-31T02:40:50.575Z,-0.15
2019-01-31T02:41:50.663Z,-0.17
2019-01-31T02:42:50.622Z,-0.15
2019-01-31T02:43:50.671Z,-0.15
2019-01-31T02:44:50.669Z,-0.15
2019-01-31T02:45:50.594Z,-0.15
2019-01-31T02:46:50.612Z,-0.15
2019-01-31T02:47:50.671Z,-0.15
2019-01-31T02:48:50.594Z,-0.13
2019-01-31T02:49:50.692Z,-0.13
2019-01-31T02:50:50.658Z,-0.09
2019-01-31T02:51:50.638Z,-0.09
2019-01-31T02:52:50.623Z,-0.08
2019-01-31T02:53:50.698Z,-0.08
2019-01-31T02:54:50.639Z,-0.08
2019-01-31T02:55:50.618Z,-0.06
2019-01-31T02:56:50.644Z,-0.06
2019-01-31T02:57:50.640Z,-0.08
2019-01-31T02:58:50.633Z,-0.06
2019-01-31T02:59:50.738Z,-0.06
2019-01-31T03:00:50.625Z,-0.05
2019-01-31T03:01:50.687Z,-0.05
2019-01-31T03:02:50.560Z,-0.05
2019-01-31T03:03:50.672Z,-0.06
2019-01-31T03:04:50.593Z,-0.05
2019-01-31T03:05:50.650Z,-0.02
2019-01-31T03:06:50.683Z,-0.02
2019-01-31T03:07:50.579Z,-0.01
2019-01-31T03:08:50.562Z,-0.01
2019-01-31T03:09:54.997Z,0.01
2019-01-31T03:10:50.578Z,0.02
2019-01-31T03:11:50.539Z,0.04
2019-01-31T03:12:50.688Z,0.05
2019-01-31T03:13:50.615Z,0.07
2019-01-31T03:14:50.615Z,0.08
2019-01-31T03:15:50.685Z,0.09
2019-01-31T03:16:50.614Z,0.09
2019-01-31T03:17:50.636Z,0.11
2019-01-31T03:18:50.635Z,0.09
2019-01-31T03:19:50.689Z,0.05
2019-01-31T03:20:50.581Z,0.05
2019-01-31T03:21:50.679Z,0.04
2019-01-31T03:22:50.612Z,0.02
2019-01-31T03:23:50.686Z,0.01
2019-01-31T03:24:50.611Z,0.00
2019-01-31T03:25:50.615Z,-0.01
2019-01-31T03:26:50.631Z,-0.03
2019-01-31T03:27:50.621Z,-0.06
2019-01-31T03:28:50.687Z,-0.09
2019-01-31T03:29:50.691Z,-0.10
2019-01-31T03:30:50.820Z,-0.14
2019-01-31T03:31:50.698Z,-0.14
2019-01-31T03:32:50.690Z,-0.14
2019-01-31T03:33:50.621Z,-0.14
2019-01-31T03:34:50.692Z,-0.15
2019-01-31T03:35:50.620Z,-0.15
2019-01-31T03:36:50.690Z,-0.17
2019-01-31T03:37:50.621Z,-0.18
2019-01-31T03:38:50.696Z,-0.18
2019-01-31T03:39:50.628Z,-0.20
2019-01-31T03:40:50.625Z,-0.20
2019-01-31T03:41:50.699Z,-0.15
2019-01-31T03:42:50.651Z,-0.15
2019-01-31T03:43:50.734Z,-0.15
2019-01-31T03:44:50.716Z,-0.13
2019-01-31T03:45:50.729Z,-0.10
2019-01-31T03:46:50.663Z,-0.13
2019-01-31T03:47:50.658Z,-0.10
2019-01-31T03:48:50.635Z,-0.09
2019-01-31T03:49:50.653Z,-0.08
2019-01-31T03:50:50.739Z,-0.08
2019-01-31T03:51:50.740Z,-0.06
2019-01-31T03:52:50.637Z,-0.10
2019-01-31T03:53:50.720Z,-0.14
2019-01-31T03:54:50.714Z,-0.20
2019-01-31T03:55:50.639Z,-0.25
2019-01-31T03:56:50.726Z,-0.29
2019-01-31T03:57:50.723Z,-0.33
2019-01-31T03:58:50.743Z,-0.39
2019-01-31T03:59:50.717Z,-0.43
2019-01-31T04:00:50.646Z,-0.47
2019-01-31T04:01:50.723Z,-0.52
2019-01-31T04:02:50.630Z,-0.59
2019-01-31T04:03:50.721Z,-0.65
2019-01-31T04:04:50.730Z,-0.72
2019-01-31T04:05:50.680Z,-0.80
2019-01-31T04:06:50.747Z,-0.89
2019-01-31T04:07:50.673Z,-0.96
2019-01-31T04:08:50.730Z,-1.03
2019-01-31T04:09:50.685Z,-1.13
2019-01-31T04:10:50.783Z,-1.21
2019-01-31T04:11:50.709Z,-1.28
2019-01-31T04:12:50.653Z,-1.30
2019-01-31T04:13:50.621Z,-1.43
2019-01-31T04:14:50.604Z,-1.45
2019-01-31T04:15:50.605Z,-1.49
2019-01-31T04:16:50.705Z,-1.51
2019-01-31T04:17:50.718Z,-1.52
2019-01-31T04:18:50.713Z,-1.49
2019-01-31T04:19:50.641Z,-1.52
2019-01-31T04:20:51.168Z,-1.62
2019-01-31T04:21:50.705Z,-1.67
2019-01-31T04:22:50.742Z,-1.70
2019-01-31T04:23:50.679Z,-1.71
2019-01-31T04:24:50.715Z,-1.70
2019-01-31T04:25:50.664Z,-1.74
2019-01-31T04:26:50.741Z,-1.78
2019-01-31T04:27:50.686Z,-1.80
2019-01-31T04:28:50.669Z,-1.80
2019-01-31T04:29:50.747Z,-1.84
2019-01-31T04:30:50.664Z,-1.85
2019-01-31T04:31:50.740Z,-1.93
2019-01-31T04:32:50.687Z,-2.00
2019-01-31T04:33:50.739Z,-2.00
2019-01-31T04:34:50.672Z,-1.93
2019-01-31T04:35:50.750Z,-1.97
2019-01-31T04:36:50.753Z,-2.01
2019-01-31T04:37:50.742Z,-2.02
2019-01-31T04:38:50.706Z,-2.04
2019-01-31T04:39:50.746Z,-2.07
2019-01-31T04:40:50.712Z,-2.09
2019-01-31T04:41:50.747Z,-2.09
2019-01-31T04:42:50.748Z,-2.07
2019-01-31T04:43:50.671Z,-2.04
2019-01-31T04:44:50.757Z,-2.08
2019-01-31T04:45:50.756Z,-2.09
2019-01-31T04:46:50.738Z,-2.09
2019-01-31T04:47:50.699Z,-2.11
2019-01-31T04:48:50.678Z,-2.11
2019-01-31T04:49:50.678Z,-2.11
2019-01-31T04:50:50.759Z,-2.12
2019-01-31T04:51:50.697Z,-2.09
2019-01-31T04:52:50.706Z,-2.11
2019-01-31T04:53:50.751Z,-2.12
2019-01-31T04:54:50.736Z,-2.12
2019-01-31T04:55:50.710Z,-2.12
2019-01-31T04:56:50.623Z,-2.12
2019-01-31T04:57:50.622Z,-2.13
2019-01-31T04:58:50.744Z,-2.12
2019-01-31T04:59:50.621Z,-2.11
2019-01-31T05:00:50.619Z,-2.02
2019-01-31T05:01:50.621Z,-1.84
2019-01-31T05:02:50.661Z,-1.74
2019-01-31T05:03:50.751Z,-1.63
2019-01-31T05:04:50.693Z,-1.62
2019-01-31T05:05:50.640Z,-1.62
2019-01-31T05:06:50.697Z,-1.65
2019-01-31T05:07:50.627Z,-1.65
2019-01-31T05:08:50.627Z,-1.67
2019-01-31T05:09:50.632Z,-1.70
2019-01-31T05:10:50.619Z,-1.67
2019-01-31T05:11:50.660Z,-1.69
2019-01-31T05:12:50.753Z,-1.65
2019-01-31T05:13:50.704Z,-1.60
2019-01-31T05:14:50.716Z,-1.55
2019-01-31T05:15:50.728Z,-1.51
2019-01-31T05:16:50.775Z,-1.47
2019-01-31T05:17:50.704Z,-1.51
2019-01-31T05:18:50.721Z,-1.54
2019-01-31T05:19:50.699Z,-1.59
2019-01-31T05:20:50.778Z,-1.59
2019-01-31T05:21:50.779Z,-1.58
2019-01-31T05:22:50.779Z,-1.58
2019-01-31T05:23:50.702Z,-1.62
2019-01-31T05:24:50.770Z,-1.65
2019-01-31T05:25:50.806Z,-1.67
2019-01-31T05:26:50.702Z,-1.56
2019-01-31T05:27:50.773Z,-1.52
2019-01-31T05:28:50.701Z,-1.51
2019-01-31T05:29:50.771Z,-1.52
2019-01-31T05:30:50.837Z,-1.54
2019-01-31T05:31:50.771Z,-1.54
2019-01-31T05:32:50.702Z,-1.54
2019-01-31T05:33:50.735Z,-1.51
2019-01-31T05:34:50.709Z,-1.49
2019-01-31T05:35:50.742Z,-1.49
2019-01-31T05:36:50.657Z,-1.48
2019-01-31T05:37:50.703Z,-1.52
2019-01-31T05:38:50.751Z,-1.54
2019-01-31T05:39:50.704Z,-1.55
2019-01-31T05:40:55.553Z,-1.55
2019-01-31T05:41:50.669Z,-1.58
2019-01-31T05:42:50.711Z,-1.62
2019-01-31T05:43:50.682Z,-1.60
2019-01-31T05:44:50.679Z,-1.63
2019-01-31T05:45:50.704Z,-1.66
2019-01-31T05:46:50.664Z,-1.66
2019-01-31T05:47:50.693Z,-1.66
2019-01-31T05:48:50.771Z,-1.62
2019-01-31T05:49:50.773Z,-1.58
2019-01-31T05:50:50.708Z,-1.59
2019-01-31T05:51:50.777Z,-1.60
2019-01-31T05:52:50.763Z,-1.58
2019-01-31T05:53:50.805Z,-1.63
2019-01-31T05:54:50.716Z,-1.56
2019-01-31T05:55:50.805Z,-1.58
2019-01-31T05:56:50.715Z,-1.54
2019-01-31T05:57:50.794Z,-1.56
2019-01-31T05:58:50.726Z,-1.58
2019-01-31T05:59:50.791Z,-1.56
2019-01-31T06:00:50.721Z,-1.58
2019-01-31T06:01:50.811Z,-1.56
2019-01-31T06:02:50.722Z,-1.48
2019-01-31T06:03:50.853Z,-1.45
2019-01-31T06:04:53.764Z,-1.45
2019-01-31T06:05:50.730Z,-1.45
2019-01-31T06:06:50.739Z,-1.48
2019-01-31T06:07:50.809Z,-1.52
2019-01-31T06:08:50.810Z,-1.58
2019-01-31T06:09:50.857Z,-1.58
2019-01-31T06:10:50.739Z,-1.59
2019-01-31T06:11:50.817Z,-1.60
2019-01-31T06:12:50.813Z,-1.54
2019-01-31T06:13:50.754Z,-1.56
2019-01-31T06:14:50.813Z,-1.54
2019-01-31T06:15:50.740Z,-1.55
2019-01-31T06:16:50.756Z,-1.59
2019-01-31T06:17:50.817Z,-1.60
2019-01-31T06:18:50.740Z,-1.58
2019-01-31T06:19:50.749Z,-1.58
2019-01-31T06:20:50.746Z,-1.56
2019-01-31T06:21:50.842Z,-1.58
2019-01-31T06:22:50.745Z,-1.58
2019-01-31T06:23:50.768Z,-1.60
2019-01-31T06:24:50.754Z,-1.60
2019-01-31T06:25:50.820Z,-1.59
2019-01-31T06:26:50.750Z,-1.55
2019-01-31T06:27:50.779Z,-1.58
2019-01-31T06:28:50.748Z,-1.62
2019-01-31T06:29:50.823Z,-1.65
2019-01-31T06:30:50.827Z,-1.63
2019-01-31T06:31:50.831Z,-1.65
2019-01-31T06:32:50.860Z,-1.65
2019-01-31T06:33:50.754Z,-1.65
2019-01-31T06:34:50.752Z,-1.65
2019-01-31T06:35:50.752Z,-1.65
2019-01-31T06:36:50.767Z,-1.65
2019-01-31T06:37:50.758Z,-1.65
2019-01-31T06:38:50.824Z,-1.65
2019-01-31T06:39:50.831Z,-1.65
2019-01-31T06:40:50.827Z,-1.65
2019-01-31T06:41:50.756Z,-1.65
2019-01-31T06:42:50.762Z,-1.84
2019-01-31T06:43:50.765Z,-1.87
2019-01-31T06:44:50.916Z,-1.89
2019-01-31T06:45:50.761Z,-1.93
2019-01-31T06:46:50.758Z,-1.95
2019-01-31T06:47:50.839Z,-1.91
2019-01-31T06:48:50.835Z,-1.93
2019-01-31T06:49:50.779Z,-1.89
2019-01-31T06:50:50.849Z,-1.91
2019-01-31T06:51:50.779Z,-1.93
2019-01-31T06:52:50.766Z,-1.95
2019-01-31T06:53:50.757Z,-1.98
2019-01-31T06:54:50.834Z,-2.01
2019-01-31T06:55:50.759Z,-2.01
2019-01-31T06:56:50.831Z,-2.02
2019-01-31T06:57:50.764Z,-2.04
2019-01-31T06:58:50.832Z,-2.05
2019-01-31T06:59:50.757Z,-2.05
2019-01-31T07:00:50.761Z,-2.05
2019-01-31T07:01:50.833Z,-2.07
2019-01-31T07:02:50.770Z,-2.05
2019-01-31T07:03:50.846Z,-2.02
2019-01-31T07:04:50.771Z,-2.04
2019-01-31T07:05:50.863Z,-2.07
2019-01-31T07:06:50.778Z,-2.09
2019-01-31T07:07:50.854Z,-2.11
2019-01-31T07:08:50.796Z,-2.13
2019-01-31T07:09:50.845Z,-2.13
2019-01-31T07:10:50.856Z,-2.07
2019-01-31T07:11:50.777Z,-2.08
2019-01-31T07:12:50.785Z,-2.05
2019-01-31T07:13:50.815Z,-2.04
2019-01-31T07:14:50.852Z,-2.05
2019-01-31T07:15:50.791Z,-2.07
2019-01-31T07:16:50.781Z,-2.08
2019-01-31T07:17:50.853Z,-2.09
2019-01-31T07:18:50.791Z,-2.09
2019-01-31T07:19:50.851Z,-2.09
2019-01-31T07:20:50.862Z,-2.05
2019-01-31T07:21:50.860Z,-2.07
2019-01-31T07:22:50.783Z,-2.07
2019-01-31T07:23:50.897Z,-2.09
2019-01-31T07:24:50.785Z,-2.12
2019-01-31T07:25:50.864Z,-2.13
2019-01-31T07:26:50.870Z,-2.15
2019-01-31T07:27:50.941Z,-2.16
2019-01-31T07:28:50.796Z,-2.16
2019-01-31T07:29:50.813Z,-2.16
2019-01-31T07:30:50.806Z,-2.16
2019-01-31T07:31:50.794Z,-2.16
2019-01-31T07:32:50.808Z,-2.18
2019-01-31T07:33:50.859Z,-2.19
2019-01-31T07:34:50.819Z,-2.20
2019-01-31T07:35:52.224Z,-2.23
2019-01-31T07:36:50.855Z,-2.26
2019-01-31T07:37:53.023Z,-2.27
2019-01-31T07:38:50.787Z,-2.30
2019-01-31T07:39:50.782Z,-2.27
2019-01-31T07:40:50.768Z,-2.22
2019-01-31T07:41:50.791Z,-2.18
2019-01-31T07:42:50.819Z,-2.15
2019-01-31T07:43:50.817Z,-2.13
2019-01-31T07:44:50.875Z,-2.11
2019-01-31T07:45:50.801Z,-2.11
2019-01-31T07:46:50.801Z,-2.11
2019-01-31T07:47:50.880Z,-2.07
2019-01-31T07:48:50.811Z,-2.01
2019-01-31T07:49:50.813Z,-1.97
2019-01-31T07:50:50.876Z,-1.88
2019-01-31T07:51:50.862Z,-1.87
2019-01-31T07:52:50.856Z,-1.87
2019-01-31T07:53:50.874Z,-1.85
2019-01-31T07:54:50.866Z,-1.82
2019-01-31T07:55:50.869Z,-1.78
2019-01-31T07:56:50.836Z,-1.76
2019-01-31T07:57:50.870Z,-1.74
2019-01-31T07:58:50.874Z,-1.70
2019-01-31T07:59:50.871Z,-1.66
2019-01-31T08:00:50.783Z,-1.60
2019-01-31T08:01:50.878Z,-1.55
2019-01-31T08:02:50.769Z,-1.51
2019-01-31T08:04:01.962Z,-1.48
2019-01-31T08:04:50.818Z,-1.44
2019-01-31T08:05:50.818Z,-1.38
2019-01-31T08:06:50.826Z,-1.30
2019-01-31T08:07:50.891Z,-1.28
2019-01-31T08:08:50.819Z,-1.22
2019-01-31T08:09:50.831Z,-1.17
2019-01-31T08:10:50.817Z,-1.13
2019-01-31T08:11:52.693Z,-1.08
2019-01-31T08:12:50.840Z,-1.03
2019-01-31T08:13:51.010Z,-0.99
2019-01-31T08:14:50.825Z,-0.93
2019-01-31T08:15:50.894Z,-0.86
2019-01-31T08:16:50.828Z,-0.78
2019-01-31T08:17:50.895Z,-0.73
2019-01-31T08:18:50.905Z,-0.66
2019-01-31T08:19:50.822Z,-0.59
2019-01-31T08:20:50.894Z,-0.52
2019-01-31T08:21:50.828Z,-0.43
2019-01-31T08:22:50.825Z,-0.35
2019-01-31T08:23:50.902Z,-0.29
2019-01-31T08:24:50.832Z,-0.27
2019-01-31T08:25:50.830Z,-0.22
2019-01-31T08:26:50.797Z,-0.13
2019-01-31T08:27:50.852Z,-0.09
2019-01-31T08:28:50.902Z,-0.02
2019-01-31T08:29:50.906Z,0.04
2019-01-31T08:30:50.869Z,0.12
2019-01-31T08:31:50.832Z,0.18
2019-01-31T08:32:50.904Z,0.20
2019-01-31T08:33:50.892Z,0.23
2019-01-31T08:34:50.899Z,0.26
2019-01-31T08:35:50.884Z,0.29
2019-01-31T08:36:50.895Z,0.33
2019-01-31T08:37:50.830Z,0.36
2019-01-31T08:38:50.895Z,0.45
2019-01-31T08:39:50.867Z,0.49
2019-01-31T08:40:50.794Z,0.56
2019-01-31T08:41:50.835Z,0.60
2019-01-31T08:42:50.897Z,0.64
2019-01-31T08:43:50.925Z,0.67
2019-01-31T08:44:50.919Z,0.71
2019-01-31T08:45:50.841Z,0.78
2019-01-31T08:46:50.846Z,0.88
2019-01-31T08:47:50.852Z,0.95
2019-01-31T08:48:50.916Z,1.00
2019-01-31T08:49:50.926Z,0.95
2019-01-31T08:50:50.845Z,0.88
2019-01-31T08:51:50.874Z,0.95
2019-01-31T08:52:50.918Z,1.11
2019-01-31T08:53:50.847Z,1.34
2019-01-31T08:54:50.926Z,1.54
2019-01-31T08:55:50.892Z,1.74
2019-01-31T08:56:50.851Z,1.94
2019-01-31T08:57:50.928Z,2.04
2019-01-31T08:58:50.856Z,2.06
2019-01-31T08:59:50.856Z,2.19
2019-01-31T09:00:50.855Z,2.20
2019-01-31T09:01:50.925Z,2.16
2019-01-31T09:02:50.858Z,2.06
2019-01-31T09:03:50.857Z,2.01
2019-01-31T09:04:50.852Z,1.72
2019-01-31T09:05:50.935Z,1.75
2019-01-31T09:06:50.858Z,1.87
2019-01-31T09:07:50.874Z,1.87
2019-01-31T09:08:50.929Z,1.87
2019-01-31T09:09:50.866Z,1.79
2019-01-31T09:10:50.916Z,1.71
2019-01-31T09:11:50.931Z,1.79
2019-01-31T09:12:50.860Z,1.92
2019-01-31T09:13:50.888Z,1.98
2019-01-31T09:14:50.836Z,2.02
2019-01-31T09:15:50.853Z,1.95
2019-01-31T09:16:50.978Z,1.87
2019-01-31T09:17:50.871Z,1.68
2019-01-31T09:18:50.920Z,1.65
2019-01-31T09:19:50.928Z,1.75
2019-01-31T09:20:50.904Z,1.94
2019-01-31T09:21:50.932Z,2.09
2019-01-31T09:22:50.841Z,2.32
2019-01-31T09:23:50.947Z,2.61
2019-01-31T09:24:50.869Z,2.66
2019-01-31T09:25:50.928Z,2.79
2019-01-31T09:26:50.876Z,2.74
2019-01-31T09:27:50.879Z,2.77
2019-01-31T09:28:50.949Z,2.92
2019-01-31T09:29:50.947Z,2.91
2019-01-31T09:30:50.872Z,3.09
2019-01-31T09:31:50.947Z,3.33
2019-01-31T09:32:50.877Z,3.39
2019-01-31T09:33:50.877Z,3.48
2019-01-31T09:34:50.850Z,3.74
2019-01-31T09:35:50.940Z,3.95
2019-01-31T09:36:50.839Z,4.10
2019-01-31T09:37:50.935Z,4.24
2019-01-31T09:38:50.842Z,4.29
2019-01-31T09:39:50.819Z,4.37
2019-01-31T09:40:50.950Z,4.43
2019-01-31T09:41:50.884Z,4.44
2019-01-31T09:42:50.820Z,4.35
2019-01-31T09:43:50.932Z,4.12
2019-01-31T09:44:50.935Z,3.81
2019-01-31T09:45:50.890Z,3.84
2019-01-31T09:46:50.848Z,4.00
2019-01-31T09:47:50.933Z,4.04
2019-01-31T09:48:50.836Z,4.11
2019-01-31T09:49:50.864Z,4.11
2019-01-31T09:50:50.941Z,4.08
2019-01-31T09:51:50.850Z,4.14
2019-01-31T09:52:50.966Z,3.99
2019-01-31T09:53:50.972Z,3.57
2019-01-31T09:54:50.934Z,3.37
2019-01-31T09:55:50.824Z,3.33
2019-01-31T09:56:50.826Z,3.24
2019-01-31T09:57:50.915Z,3.09
2019-01-31T09:58:50.940Z,3.05
2019-01-31T09:59:50.952Z,2.99
2019-01-31T10:00:50.945Z,2.85
2019-01-31T10:01:52.673Z,2.70
2019-01-31T10:02:50.937Z,2.81
2019-01-31T10:03:50.870Z,3.09
2019-01-31T10:04:50.856Z,3.42
2019-01-31T10:05:50.893Z,3.74
2019-01-31T10:06:50.958Z,4.03
2019-01-31T10:07:50.828Z,4.29
2019-01-31T10:08:50.908Z,4.37
2019-01-31T10:09:50.893Z,4.66
2019-01-31T10:10:50.943Z,4.82
2019-01-31T10:11:50.916Z,4.98
2019-01-31T10:12:50.882Z,4.92
2019-01-31T10:13:50.879Z,4.98
2019-01-31T10:14:51.131Z,5.14
2019-01-31T10:15:51.064Z,5.22
2019-01-31T10:16:50.861Z,5.14
2019-01-31T10:17:50.926Z,5.06
2019-01-31T10:18:50.917Z,4.84
2019-01-31T10:19:50.906Z,4.99
2019-01-31T10:20:50.972Z,5.16
2019-01-31T10:21:50.974Z,5.26
2019-01-31T10:22:50.977Z,5.33
2019-01-31T10:23:51.025Z,5.19
2019-01-31T10:24:51.030Z,5.16
2019-01-31T10:25:50.914Z,5.30
2019-01-31T10:26:51.001Z,5.52
2019-01-31T10:27:50.913Z,5.62
2019-01-31T10:28:50.922Z,5.23
2019-01-31T10:29:52.899Z,4.85
2019-01-31T10:30:50.914Z,4.60
2019-01-31T10:31:50.997Z,4.54
2019-01-31T10:32:50.919Z,4.33
2019-01-31T10:33:50.934Z,4.22
2019-01-31T10:34:50.978Z,4.21
2019-01-31T10:35:50.893Z,3.92
2019-01-31T10:36:50.889Z,3.85
2019-01-31T10:37:50.872Z,3.65
2019-01-31T10:38:50.893Z,3.68
2019-01-31T10:39:50.946Z,3.64
2019-01-31T10:40:50.976Z,3.57
2019-01-31T10:41:50.880Z,3.54
2019-01-31T10:42:52.294Z,3.43
2019-01-31T10:43:50.984Z,3.43
2019-01-31T10:44:50.989Z,3.48
2019-01-31T10:45:50.987Z,3.68
2019-01-31T10:46:50.921Z,3.90
2019-01-31T10:47:50.885Z,4.03
2019-01-31T10:48:50.900Z,4.01
2019-01-31T10:49:50.992Z,3.96
2019-01-31T10:50:50.952Z,4.01
2019-01-31T10:51:50.920Z,4.03
2019-01-31T10:52:50.887Z,4.08
2019-01-31T10:53:50.904Z,4.19
2019-01-31T10:54:50.939Z,4.14
2019-01-31T10:55:51.006Z,4.22
2019-01-31T10:56:50.951Z,4.37
2019-01-31T10:57:51.070Z,4.44
2019-01-31T10:58:50.946Z,4.50
2019-01-31T10:59:51.007Z,4.70
2019-01-31T11:00:50.942Z,4.74
2019-01-31T11:01:51.047Z,4.54
2019-01-31T11:02:50.957Z,4.60
2019-01-31T11:03:51.009Z,4.57
2019-01-31T11:04:50.973Z,4.85
2019-01-31T11:05:51.004Z,5.02
2019-01-31T11:06:50.941Z,5.26
2019-01-31T11:07:51.015Z,5.53
2019-01-31T11:08:51.075Z,5.63
2019-01-31T11:09:51.020Z,5.75
2019-01-31T11:10:50.942Z,5.85
2019-01-31T11:11:50.942Z,5.91
2019-01-31T11:13:00.348Z,5.97
2019-01-31T11:13:50.945Z,5.74
2019-01-31T11:14:50.966Z,5.56
2019-01-31T11:15:51.017Z,5.57
2019-01-31T11:16:50.953Z,5.73
2019-01-31T11:17:50.952Z,5.51
2019-01-31T11:18:50.952Z,5.33
2019-01-31T11:19:51.029Z,5.06
2019-01-31T11:20:50.953Z,4.87
2019-01-31T11:21:50.952Z,4.52
2019-01-31T11:22:50.966Z,4.40
2019-01-31T11:23:50.949Z,4.25
2019-01-31T11:24:50.978Z,4.29
2019-01-31T11:25:50.954Z,4.29
2019-01-31T11:26:51.027Z,4.39
2019-01-31T11:27:50.964Z,4.66
2019-01-31T11:28:50.966Z,4.85
2019-01-31T11:29:51.031Z,5.02
2019-01-31T11:30:50.967Z,4.98
2019-01-31T11:31:50.965Z,4.91
2019-01-31T11:32:51.029Z,5.00
2019-01-31T11:33:50.959Z,4.88
2019-01-31T11:34:50.978Z,4.95
2019-01-31T11:35:50.970Z,5.10
2019-01-31T11:36:51.033Z,5.27
2019-01-31T11:37:50.965Z,5.44
2019-01-31T11:38:51.056Z,5.64
2019-01-31T11:39:51.039Z,5.84
2019-01-31T11:40:51.064Z,5.89
2019-01-31T11:41:51.032Z,5.88
2019-01-31T11:42:51.040Z,5.74
2019-01-31T11:43:50.970Z,5.60
2019-01-31T11:44:51.041Z,5.30
2019-01-31T11:45:50.972Z,5.25
2019-01-31T11:46:51.066Z,5.06
2019-01-31T11:47:51.055Z,5.00
2019-01-31T11:48:51.056Z,4.93
2019-01-31T11:49:50.976Z,4.82
2019-01-31T11:50:50.970Z,4.66
2019-01-31T11:51:50.969Z,4.46
2019-01-31T11:52:50.972Z,4.43
2019-01-31T11:53:50.988Z,4.39
2019-01-31T11:54:51.040Z,4.32
2019-01-31T11:55:50.975Z,4.17
2019-01-31T11:56:50.999Z,4.10
2019-01-31T11:57:51.041Z,4.12
2019-01-31T11:58:50.998Z,4.12
2019-01-31T11:59:51.041Z,4.15
2019-01-31T12:00:53.003Z,4.17
2019-01-31T12:01:50.940Z,4.21
2019-01-31T12:02:55.040Z,4.24
2019-01-31T12:03:51.042Z,4.22
2019-01-31T12:04:51.011Z,4.21
2019-01-31T12:05:51.051Z,4.19
2019-01-31T12:06:50.985Z,4.15
2019-01-31T12:07:51.061Z,4.22
2019-01-31T12:08:51.062Z,4.36
2019-01-31T12:09:51.054Z,4.51
2019-01-31T12:10:50.986Z,4.66
2019-01-31T12:11:50.982Z,4.81
2019-01-31T12:12:51.063Z,4.96
2019-01-31T12:13:50.986Z,5.09
2019-01-31T12:14:50.986Z,5.15
2019-01-31T12:15:51.057Z,5.25
2019-01-31T12:16:51.059Z,5.40
2019-01-31T12:17:51.060Z,5.44
2019-01-31T12:18:51.049Z,5.46
2019-01-31T12:19:51.061Z,5.42
2019-01-31T12:20:50.995Z,5.23
2019-01-31T12:21:51.073Z,5.03
2019-01-31T12:22:50.992Z,4.99
2019-01-31T12:23:50.995Z,4.91
2019-01-31T12:24:50.919Z,4.78
2019-01-31T12:25:51.008Z,4.64
2019-01-31T12:26:51.035Z,4.51
2019-01-31T12:27:50.929Z,4.50
2019-01-31T12:28:51.235Z,4.51
2019-01-31T12:29:51.015Z,4.62
2019-01-31T12:30:50.925Z,4.59
2019-01-31T12:31:50.929Z,4.57
2019-01-31T12:32:51.007Z,4.57
2019-01-31T12:33:51.026Z,4.57
2019-01-31T12:34:51.016Z,4.62
2019-01-31T12:35:50.990Z,4.62
2019-01-31T12:36:50.954Z,4.63
2019-01-31T12:37:51.027Z,4.59
2019-01-31T12:38:50.930Z,4.64
2019-01-31T12:39:52.204Z,4.70
2019-01-31T12:40:51.046Z,4.82
2019-01-31T12:41:50.954Z,4.96
2019-01-31T12:42:50.983Z,5.07
2019-01-31T12:43:51.029Z,5.15
2019-01-31T12:44:51.030Z,5.19
2019-01-31T12:45:51.082Z,5.23
2019-01-31T12:46:51.010Z,5.15
2019-01-31T12:47:51.079Z,5.09
2019-01-31T12:48:51.014Z,5.04
2019-01-31T12:49:51.086Z,5.02
2019-01-31T12:50:51.087Z,5.00
2019-01-31T12:51:51.016Z,4.99
2019-01-31T12:52:51.088Z,4.99
2019-01-31T12:53:51.015Z,4.88
2019-01-31T12:54:51.090Z,4.84
2019-01-31T12:55:51.056Z,4.78
2019-01-31T12:56:51.018Z,4.73
2019-01-31T12:57:51.018Z,4.59
2019-01-31T12:58:51.016Z,4.51
2019-01-31T12:59:51.091Z,4.51
2019-01-31T13:00:51.026Z,4.41
2019-01-31T13:01:51.090Z,4.39
2019-01-31T13:02:51.118Z,4.33